Woodville, Alabama
Current Conditions -  °F | °C
As of 11:35 AM on Sunday 23 Nov 2014 (Local Time) from K4A6 Reporting Station
Overcast Overcast  
Wind Chill: 14°   Ceiling: 1400
Heat Index: 14°   Visibility: 10mi
Dew Point: 12°   Wind: 0mph
Humidity: 88%   Direction: NA
Pressure: 29.77"   Gusts: NA
Location:  34.63°N, 86.27°W
Report Text: K4A6 231735Z AUTO 00000KT 10SM OVC014 14/12 A2977 RMK AO2 LTG DSNT SE AND SW
Loading
Personal Weather Stations






























Interactive Weather Map New forecast layout! Learn more

10-Day Weather Forecast

Advertisements
Track Severe Weather on mobile